sensor_id;sensor_type;location;lat;lon;timestamp;pressure;altitude;pressure_sealevel;temperature;humidity
2339;BME280;1180;51.438;6.978;2023-09-19T00:00:26;99508.81;;;19.08;87.36
2339;BME280;1180;51.438;6.978;2023-09-19T00:02:56;99509.31;;;19.03;86.33
2339;BME280;1180;51.438;6.978;2023-09-19T00:05:23;99508.34;;;19.04;87.80
2339;BME280;1180;51.438;6.978;2023-09-19T00:07:50;99504.59;;;19.07;87.27
2339;BME280;1180;51.438;6.978;2023-09-19T00:10:19;99511.28;;;19.01;87.23
2339;BME280;1180;51.438;6.978;2023-09-19T00:12:45;99511.09;;;19.02;86.67
2339;BME280;1180;51.438;6.978;2023-09-19T00:15:10;99513.06;;;19.09;86.51
2339;BME280;1180;51.438;6.978;2023-09-19T00:17:36;99515.50;;;19.02;86.19
2339;BME280;1180;51.438;6.978;2023-09-19T00:20:02;99515.50;;;19.02;86.81
2339;BME280;1180;51.438;6.978;2023-09-19T00:22:32;99514.97;;;18.90;87.59
2339;BME280;1180;51.438;6.978;2023-09-19T00:24:57;99525.22;;;18.91;87.54
2339;BME280;1180;51.438;6.978;2023-09-19T00:27:22;99525.22;;;18.91;87.22
2339;BME280;1180;51.438;6.978;2023-09-19T00:29:48;99523.75;;;18.81;88.61
2339;BME280;1180;51.438;6.978;2023-09-19T00:32:13;99526.19;;;18.82;88.31
2339;BME280;1180;51.438;6.978;2023-09-19T00:34:38;99525.38;;;18.82;88.28
2339;BME280;1180;51.438;6.978;2023-09-19T00:37:04;99524.41;;;18.83;88.04
2339;BME280;1180;51.438;6.978;2023-09-19T00:39:29;99524.88;;;18.78;87.96
2339;BME280;1180;51.438;6.978;2023-09-19T00:41:56;99531.38;;;18.74;87.73
2339;BME280;1180;51.438;6.978;2023-09-19T00:44:22;99530.91;;;18.79;87.91
2339;BME280;1180;51.438;6.978;2023-09-19T00:46:48;99528.28;;;18.70;87.95
2339;BME280;1180;51.438;6.978;2023-09-19T00:49:15;99532.50;;;18.63;88.16
2339;BME280;1180;51.438;6.978;2023-09-19T00:51:41;99531.84;;;18.69;87.25
2339;BME280;1180;51.438;6.978;2023-09-19T00:54:07;99532.69;;;18.78;87.02
2339;BME280;1180;51.438;6.978;2023-09-19T00:56:33;99529.75;;;18.73;86.70
2339;BME280;1180;51.438;6.978;2023-09-19T00:58:58;99542.63;;;18.74;86.44
2339;BME280;1180;51.438;6.978;2023-09-19T01:01:24;99549.72;;;18.64;86.71
2339;BME280;1180;51.438;6.978;2023-09-19T01:03:50;99547.63;;;18.59;86.96
2339;BME280;1180;51.438;6.978;2023-09-19T01:06:16;99549.22;;;18.52;87.10
2339;BME280;1180;51.438;6.978;2023-09-19T01:08:42;99549.72;;;18.47;87.38
2339;BME280;1180;51.438;6.978;2023-09-19T01:11:16;99557.00;;;18.52;87.31
2339;BME280;1180;51.438;6.978;2023-09-19T01:13:58;99560.25;;;18.54;86.91
2339;BME280;1180;51.438;6.978;2023-09-19T01:16:30;99563.38;;;18.50;86.62
2339;BME280;1180;51.438;6.978;2023-09-19T01:30:40;99573.88;;;18.40;87.85
2339;BME280;1180;51.438;6.978;2023-09-19T01:33:09;99575.19;;;18.44;87.28
2339;BME280;1180;51.438;6.978;2023-09-19T01:35:38;99569.53;;;18.48;86.91
2339;BME280;1180;51.438;6.978;2023-09-19T01:38:05;99578.13;;;18.49;86.95
2339;BME280;1180;51.438;6.978;2023-09-19T01:40:33;99582.66;;;18.47;86.34
2339;BME280;1180;51.438;6.978;2023-09-19T01:43:23;99596.00;;;18.52;86.69
2339;BME280;1180;51.438;6.978;2023-09-19T01:48:38;99592.53;;;18.27;87.22
2339;BME280;1180;51.438;6.978;2023-09-19T01:51:09;99600.16;;;18.28;87.21
2339;BME280;1180;51.438;6.978;2023-09-19T01:56:08;99597.38;;;18.22;87.03
2339;BME280;1180;51.438;6.978;2023-09-19T01:58:42;99594.63;;;18.23;87.04
2339;BME280;1180;51.438;6.978;2023-09-19T02:01:12;99590.13;;;18.33;86.36
2339;BME280;1180;51.438;6.978;2023-09-19T02:03:40;99599.50;;;18.26;86.18
2339;BME280;1180;51.438;6.978;2023-09-19T02:06:06;99599.19;;;18.29;86.12
2339;BME280;1180;51.438;6.978;2023-09-19T02:08:36;99597.84;;;18.17;86.71
2339;BME280;1180;51.438;6.978;2023-09-19T02:11:02;99605.47;;;18.10;86.51
2339;BME280;1180;51.438;6.978;2023-09-19T02:13:27;99606.66;;;18.24;85.91
2339;BME280;1180;51.438;6.978;2023-09-19T02:15:53;99609.69;;;18.19;86.59
2339;BME280;1180;51.438;6.978;2023-09-19T02:18:18;99608.88;;;18.19;86.18
2339;BME280;1180;51.438;6.978;2023-09-19T02:20:44;99604.19;;;18.23;86.18
2339;BME280;1180;51.438;6.978;2023-09-19T02:23:12;99617.16;;;18.14;85.83
2339;BME280;1180;51.438;6.978;2023-09-19T02:25:38;99614.34;;;18.08;86.28
2339;BME280;1180;51.438;6.978;2023-09-19T02:28:06;99612.88;;;18.05;86.22
2339;BME280;1180;51.438;6.978;2023-09-19T02:30:32;99627.00;;;18.02;86.26
2339;BME280;1180;51.438;6.978;2023-09-19T02:32:57;99629.41;;;18.04;86.08
2339;BME280;1180;51.438;6.978;2023-09-19T02:35:22;99628.88;;;17.92;86.26
2339;BME280;1180;51.438;6.978;2023-09-19T02:37:48;99630.84;;;17.98;86.14
2339;BME280;1180;51.438;6.978;2023-09-19T02:40:14;99630.94;;;17.88;86.84
2339;BME280;1180;51.438;6.978;2023-09-19T02:42:53;99626.28;;;17.92;86.58
2339;BME280;1180;51.438;6.978;2023-09-19T02:45:19;99630.31;;;17.95;85.92
2339;BME280;1180;51.438;6.978;2023-09-19T02:47:46;99630.97;;;17.97;85.79
2339;BME280;1180;51.438;6.978;2023-09-19T02:50:12;99635.16;;;17.89;85.94
2339;BME280;1180;51.438;6.978;2023-09-19T02:52:38;99631.28;;;17.94;85.92
2339;BME280;1180;51.438;6.978;2023-09-19T02:55:09;99640.56;;;17.96;85.32
2339;BME280;1180;51.438;6.978;2023-09-19T02:57:35;99646.25;;;18.00;85.27
2339;BME280;1180;51.438;6.978;2023-09-19T03:00:00;99645.41;;;17.91;83.78
2339;BME280;1180;51.438;6.978;2023-09-19T03:02:26;99648.41;;;17.78;84.29
2339;BME280;1180;51.438;6.978;2023-09-19T03:04:52;99646.38;;;17.90;83.80
2339;BME280;1180;51.438;6.978;2023-09-19T03:07:17;99654.00;;;17.92;83.71
2339;BME280;1180;51.438;6.978;2023-09-19T03:09:43;99658.63;;;17.80;82.93
2339;BME280;1180;51.438;6.978;2023-09-19T03:12:08;99668.41;;;17.86;82.92
2339;BME280;1180;51.438;6.978;2023-09-19T03:14:33;99662.13;;;17.97;82.21
2339;BME280;1180;51.438;6.978;2023-09-19T03:17:00;99658.09;;;17.94;81.48
2339;BME280;1180;51.438;6.978;2023-09-19T03:19:26;99662.63;;;17.92;81.44
2339;BME280;1180;51.438;6.978;2023-09-19T03:21:52;99660.13;;;17.82;81.31
2339;BME280;1180;51.438;6.978;2023-09-19T03:24:18;99660.22;;;17.72;82.04
2339;BME280;1180;51.438;6.978;2023-09-19T03:26:43;99658.66;;;17.88;81.02
2339;BME280;1180;51.438;6.978;2023-09-19T03:29:10;99657.78;;;17.97;80.55
2339;BME280;1180;51.438;6.978;2023-09-19T03:31:36;99655.09;;;17.89;80.57
2339;BME280;1180;51.438;6.978;2023-09-19T03:34:04;99663.94;;;17.96;80.35
2339;BME280;1180;51.438;6.978;2023-09-19T03:36:30;99663.06;;;17.87;80.39
2339;BME280;1180;51.438;6.978;2023-09-19T03:38:55;99667.16;;;17.90;80.42
2339;BME280;1180;51.438;6.978;2023-09-19T03:41:20;99671.50;;;17.89;80.31
2339;BME280;1180;51.438;6.978;2023-09-19T03:43:46;99662.84;;;17.81;80.13
2339;BME280;1180;51.438;6.978;2023-09-19T03:46:12;99665.78;;;17.86;80.86
2339;BME280;1180;51.438;6.978;2023-09-19T03:48:38;99660.13;;;17.82;80.50
2339;BME280;1180;51.438;6.978;2023-09-19T03:51:03;99664.00;;;17.78;80.09
2339;BME280;1180;51.438;6.978;2023-09-19T03:53:29;99663.19;;;17.86;80.18
2339;BME280;1180;51.438;6.978;2023-09-19T03:55:55;99671.00;;;17.86;79.86
2339;BME280;1180;51.438;6.978;2023-09-19T03:58:20;99660.78;;;17.84;79.98
2339;BME280;1180;51.438;6.978;2023-09-19T04:00:45;99664.00;;;17.78;79.77
2339;BME280;1180;51.438;6.978;2023-09-19T04:03:11;99661.84;;;17.73;80.55
2339;BME280;1180;51.438;6.978;2023-09-19T04:05:44;99652.34;;;17.82;80.37
2339;BME280;1180;51.438;6.978;2023-09-19T04:08:10;99654.09;;;17.82;80.44
2339;BME280;1180;51.438;6.978;2023-09-19T04:10:36;99656.97;;;17.70;80.24
2339;BME280;1180;51.438;6.978;2023-09-19T04:13:01;99657.63;;;17.72;80.00
2339;BME280;1180;51.438;6.978;2023-09-19T04:15:27;99665.41;;;17.72;80.31
2339;BME280;1180;51.438;6.978;2023-09-19T04:17:52;99658.31;;;17.83;80.41
2339;BME280;1180;51.438;6.978;2023-09-19T04:20:18;99659.91;;;17.75;80.44
2339;BME280;1180;51.438;6.978;2023-09-19T04:22:49;99660.44;;;17.79;80.58
2339;BME280;1180;51.438;6.978;2023-09-19T04:25:15;99656.50;;;17.75;80.07
2339;BME280;1180;51.438;6.978;2023-09-19T04:27:40;99671.25;;;17.74;80.86
2339;BME280;1180;51.438;6.978;2023-09-19T04:30:09;99670.31;;;17.84;80.82
2339;BME280;1180;51.438;6.978;2023-09-19T04:32:36;99667.25;;;17.80;80.57
2339;BME280;1180;51.438;6.978;2023-09-19T04:35:06;99668.22;;;17.79;81.20
2339;BME280;1180;51.438;6.978;2023-09-19T04:37:32;99665.13;;;17.84;80.48
2339;BME280;1180;51.438;6.978;2023-09-19T04:39:58;99661.50;;;17.68;81.55
2339;BME280;1180;51.438;6.978;2023-09-19T04:42:23;99664.75;;;17.70;81.42
2339;BME280;1180;51.438;6.978;2023-09-19T04:44:50;99668.13;;;17.71;81.46
2339;BME280;1180;51.438;6.978;2023-09-19T04:47:19;99663.72;;;17.63;81.77
2339;BME280;1180;51.438;6.978;2023-09-19T04:49:44;99668.25;;;17.61;82.03
2339;BME280;1180;51.438;6.978;2023-09-19T04:52:10;99667.28;;;17.62;82.29
2339;BME280;1180;51.438;6.978;2023-09-19T04:54:35;99673.81;;;17.66;82.39
2339;BME280;1180;51.438;6.978;2023-09-19T04:57:00;99676.75;;;17.71;82.60
2339;BME280;1180;51.438;6.978;2023-09-19T04:59:26;99673.19;;;17.72;82.76
2339;BME280;1180;51.438;6.978;2023-09-19T05:01:53;99685.50;;;17.70;82.65
2339;BME280;1180;51.438;6.978;2023-09-19T05:04:19;99684.66;;;17.70;82.93
2339;BME280;1180;51.438;6.978;2023-09-19T05:06:44;99684.88;;;17.76;82.07
2339;BME280;1180;51.438;6.978;2023-09-19T05:09:10;99689.72;;;17.71;82.37
2339;BME280;1180;51.438;6.978;2023-09-19T05:11:35;99697.88;;;17.76;81.99
2339;BME280;1180;51.438;6.978;2023-09-19T05:14:03;99704.03;;;17.75;82.30
2339;BME280;1180;51.438;6.978;2023-09-19T05:16:29;99712.66;;;17.58;81.95
2339;BME280;1180;51.438;6.978;2023-09-19T05:18:57;99713.31;;;17.60;82.78
2339;BME280;1180;51.438;6.978;2023-09-19T05:21:25;99721.91;;;17.60;82.52
2339;BME280;1180;51.438;6.978;2023-09-19T05:23:51;99725.53;;;17.68;82.83
2339;BME280;1180;51.438;6.978;2023-09-19T05:26:17;99739.94;;;17.62;82.09
2339;BME280;1180;51.438;6.978;2023-09-19T05:28:43;99741.47;;;17.55;82.80
2339;BME280;1180;51.438;6.978;2023-09-19T05:31:08;99738.50;;;17.68;82.44
2339;BME280;1180;51.438;6.978;2023-09-19T05:33:34;99736.50;;;17.61;82.43
2339;BME280;1180;51.438;6.978;2023-09-19T05:35:59;99736.22;;;17.65;82.84
2339;BME280;1180;51.438;6.978;2023-09-19T05:38:24;99736.38;;;17.63;82.43
2339;BME280;1180;51.438;6.978;2023-09-19T05:40:52;99743.50;;;17.61;81.68
2339;BME280;1180;51.438;6.978;2023-09-19T05:43:17;99745.91;;;17.63;82.65
2339;BME280;1180;51.438;6.978;2023-09-19T05:45:43;99755.03;;;17.67;82.41
2339;BME280;1180;51.438;6.978;2023-09-19T05:48:14;99751.63;;;17.66;82.18
2339;BME280;1180;51.438;6.978;2023-09-19T05:50:41;99758.81;;;17.72;81.84
2339;BME280;1180;51.438;6.978;2023-09-19T05:53:07;99763.19;;;17.54;82.07
2339;BME280;1180;51.438;6.978;2023-09-19T05:55:33;99756.97;;;17.65;82.44
2339;BME280;1180;51.438;6.978;2023-09-19T05:57:58;99762.81;;;17.67;81.69
2339;BME280;1180;51.438;6.978;2023-09-19T06:00:25;99767.34;;;17.65;81.80
2339;BME280;1180;51.438;6.978;2023-09-19T06:02:57;99769.63;;;17.68;81.55
2339;BME280;1180;51.438;6.978;2023-09-19T06:05:23;99774.69;;;17.69;81.47
2339;BME280;1180;51.438;6.978;2023-09-19T06:07:49;99777.03;;;17.81;80.26
2339;BME280;1180;51.438;6.978;2023-09-19T06:10:15;99769.91;;;17.83;80.88
2339;BME280;1180;51.438;6.978;2023-09-19T06:12:42;99771.56;;;17.84;80.27
2339;BME280;1180;51.438;6.978;2023-09-19T06:15:09;99762.50;;;17.88;80.80
2339;BME280;1180;51.438;6.978;2023-09-19T06:17:40;99767.25;;;17.93;80.96
2339;BME280;1180;51.438;6.978;2023-09-19T06:20:06;99770.66;;;17.93;80.67
2339;BME280;1180;51.438;6.978;2023-09-19T06:22:41;99772.31;;;17.94;80.49
2339;BME280;1180;51.438;6.978;2023-09-19T06:25:07;99760.78;;;17.97;79.59
2339;BME280;1180;51.438;6.978;2023-09-19T06:27:33;99765.38;;;18.03;79.13
2339;BME280;1180;51.438;6.978;2023-09-19T06:29:58;99773.41;;;17.92;78.88
2339;BME280;1180;51.438;6.978;2023-09-19T06:32:27;99773.09;;;17.95;79.30
2339;BME280;1180;51.438;6.978;2023-09-19T06:34:53;99772.66;;;17.99;79.49
2339;BME280;1180;51.438;6.978;2023-09-19T06:37:20;99765.91;;;18.07;79.07
2339;BME280;1180;51.438;6.978;2023-09-19T06:39:46;99762.88;;;18.11;78.88
2339;BME280;1180;51.438;6.978;2023-09-19T06:42:15;99765.97;;;18.15;79.14
2339;BME280;1180;51.438;6.978;2023-09-19T06:44:42;99762.31;;;18.26;78.58
2339;BME280;1180;51.438;6.978;2023-09-19T06:47:08;99768.31;;;18.26;78.08
2339;BME280;1180;51.438;6.978;2023-09-19T06:49:34;99769.47;;;18.32;78.08
2339;BME280;1180;51.438;6.978;2023-09-19T06:52:00;99774.19;;;18.28;78.29
2339;BME280;1180;51.438;6.978;2023-09-19T06:54:25;99780.53;;;18.34;78.52
2339;BME280;1180;51.438;6.978;2023-09-19T06:56:56;99779.88;;;18.32;77.60
2339;BME280;1180;51.438;6.978;2023-09-19T06:59:24;99778.75;;;18.35;78.78
2339;BME280;1180;51.438;6.978;2023-09-19T07:01:49;99774.88;;;18.39;78.47
2339;BME280;1180;51.438;6.978;2023-09-19T07:04:15;99774.22;;;18.37;78.78
2339;BME280;1180;51.438;6.978;2023-09-19T07:06:42;99776.53;;;18.48;78.08
2339;BME280;1180;51.438;6.978;2023-09-19T07:09:08;99780.78;;;18.49;78.38
2339;BME280;1180;51.438;6.978;2023-09-19T07:11:33;99783.56;;;18.56;78.34
2339;BME280;1180;51.438;6.978;2023-09-19T07:13:59;99789.22;;;18.51;78.66
2339;BME280;1180;51.438;6.978;2023-09-19T07:16:24;99796.06;;;18.52;78.34
2339;BME280;1180;51.438;6.978;2023-09-19T07:18:54;99795.91;;;18.54;78.50
2339;BME280;1180;51.438;6.978;2023-09-19T07:21:21;99796.72;;;18.54;78.99
2339;BME280;1180;51.438;6.978;2023-09-19T07:23:47;99794.59;;;18.50;78.43
2339;BME280;1180;51.438;6.978;2023-09-19T07:26:12;99799.31;;;18.54;78.90
2339;BME280;1180;51.438;6.978;2023-09-19T07:28:38;99798.41;;;18.64;78.34
2339;BME280;1180;51.438;6.978;2023-09-19T07:31:03;99791.72;;;18.61;78.48
2339;BME280;1180;51.438;6.978;2023-09-19T07:33:30;99794.66;;;18.66;78.55
2339;BME280;1180;51.438;6.978;2023-09-19T07:35:56;99799.50;;;18.61;78.52
2339;BME280;1180;51.438;6.978;2023-09-19T07:38:21;99795.63;;;18.65;78.06
2339;BME280;1180;51.438;6.978;2023-09-19T07:40:48;99795.84;;;18.72;78.04
2339;BME280;1180;51.438;6.978;2023-09-19T07:43:13;99793.25;;;18.80;78.25
2339;BME280;1180;51.438;6.978;2023-09-19T07:45:39;99802.69;;;18.81;77.06
2339;BME280;1180;51.438;6.978;2023-09-19T07:48:05;99792.94;;;18.83;78.20
2339;BME280;1180;51.438;6.978;2023-09-19T07:50:34;99802.03;;;18.79;77.99
2339;BME280;1180;51.438;6.978;2023-09-19T07:53:02;99797.50;;;18.81;78.28
2339;BME280;1180;51.438;6.978;2023-09-19T07:55:30;99800.91;;;18.82;78.45
2339;BME280;1180;51.438;6.978;2023-09-19T07:57:55;99798.97;;;18.84;78.54
2339;BME280;1180;51.438;6.978;2023-09-19T08:00:21;99806.44;;;18.79;78.07
2339;BME280;1180;51.438;6.978;2023-09-19T08:02:46;99798.34;;;18.90;78.32
2339;BME280;1180;51.438;6.978;2023-09-19T08:05:13;99804.84;;;18.86;77.77
2339;BME280;1180;51.438;6.978;2023-09-19T08:07:44;99807.94;;;18.89;77.76
2339;BME280;1180;51.438;6.978;2023-09-19T08:10:13;99818.50;;;18.88;77.89
2339;BME280;1180;51.438;6.978;2023-09-19T08:12:41;99816.19;;;18.85;77.36
2339;BME280;1180;51.438;6.978;2023-09-19T08:15:12;99816.69;;;18.88;78.54
2339;BME280;1180;51.438;6.978;2023-09-19T08:17:38;99814.16;;;18.97;77.83
2339;BME280;1180;51.438;6.978;2023-09-19T08:20:04;99821.16;;;19.04;78.35
2339;BME280;1180;51.438;6.978;2023-09-19T08:22:30;99818.41;;;18.98;78.11
2339;BME280;1180;51.438;6.978;2023-09-19T08:24:57;99815.75;;;18.89;77.65
2339;BME280;1180;51.438;6.978;2023-09-19T08:27:23;99818.41;;;18.98;79.00
2339;BME280;1180;51.438;6.978;2023-09-19T08:29:52;99822.03;;;19.22;77.29
2339;BME280;1180;51.438;6.978;2023-09-19T08:32:18;99823.34;;;19.17;77.18
2339;BME280;1180;51.438;6.978;2023-09-19T08:34:49;99821.56;;;19.18;77.23
2339;BME280;1180;51.438;6.978;2023-09-19T08:37:14;99828.25;;;19.29;77.36
2339;BME280;1180;51.438;6.978;2023-09-19T08:39:42;99829.22;;;19.28;76.51
2339;BME280;1180;51.438;6.978;2023-09-19T08:42:07;99825.97;;;19.26;76.17
2339;BME280;1180;51.438;6.978;2023-09-19T08:44:36;99833.47;;;19.37;76.74
2339;BME280;1180;51.438;6.978;2023-09-19T08:47:10;99831.19;;;19.34;75.92
2339;BME280;1180;51.438;6.978;2023-09-19T08:49:49;99834.91;;;19.31;76.04
2339;BME280;1180;51.438;6.978;2023-09-19T08:52:27;99835.75;;;19.40;75.30
2339;BME280;1180;51.438;6.978;2023-09-19T08:54:58;99837.84;;;19.37;76.80
2339;BME280;1180;51.438;6.978;2023-09-19T08:57:28;99827.69;;;19.60;75.78
2339;BME280;1180;51.438;6.978;2023-09-19T08:59:55;99836.28;;;19.69;74.85
2339;BME280;1180;51.438;6.978;2023-09-19T09:02:22;99833.72;;;19.77;74.33
2339;BME280;1180;51.438;6.978;2023-09-19T09:04:49;99833.34;;;19.72;74.59
2339;BME280;1180;51.438;6.978;2023-09-19T09:07:16;99830.28;;;19.68;73.61
2339;BME280;1180;51.438;6.978;2023-09-19T09:09:44;99832.41;;;19.81;73.76
2339;BME280;1180;51.438;6.978;2023-09-19T09:12:13;99823.44;;;19.84;73.07
2339;BME280;1180;51.438;6.978;2023-09-19T09:14:44;99828.66;;;19.84;73.91
2339;BME280;1180;51.438;6.978;2023-09-19T09:17:10;99823.50;;;19.92;73.34
2339;BME280;1180;51.438;6.978;2023-09-19T09:19:35;99828.06;;;19.98;72.77
2339;BME280;1180;51.438;6.978;2023-09-19T09:22:09;99827.88;;;19.91;72.57
2339;BME280;1180;51.438;6.978;2023-09-19T09:24:35;99827.72;;;20.01;73.35
2339;BME280;1180;51.438;6.978;2023-09-19T09:27:05;99820.53;;;20.12;71.85
2339;BME280;1180;51.438;6.978;2023-09-19T09:29:53;99820.53;;;20.28;72.18
2339;BME280;1180;51.438;6.978;2023-09-19T09:32:30;99825.09;;;20.34;72.15
2339;BME280;1180;51.438;6.978;2023-09-19T09:35:00;99828.50;;;20.35;70.21
2339;BME280;1180;51.438;6.978;2023-09-19T09:37:27;99815.34;;;20.28;70.29
2339;BME280;1180;51.438;6.978;2023-09-19T09:39:58;99816.78;;;20.31;70.52
2339;BME280;1180;51.438;6.978;2023-09-19T09:42:43;99820.03;;;20.41;69.40
2339;BME280;1180;51.438;6.978;2023-09-19T09:45:17;99815.28;;;20.45;68.70
2339;BME280;1180;51.438;6.978;2023-09-19T09:47:48;99824.06;;;20.52;68.30
2339;BME280;1180;51.438;6.978;2023-09-19T09:50:29;99827.66;;;20.51;68.17
2339;BME280;1180;51.438;6.978;2023-09-19T09:53:01;99825.03;;;20.59;67.66
2339;BME280;1180;51.438;6.978;2023-09-19T09:56:05;99824.41;;;20.49;67.90
2339;BME280;1180;51.438;6.978;2023-09-19T09:58:35;99817.72;;;20.55;68.92
2339;BME280;1180;51.438;6.978;2023-09-19T10:01:03;99820.78;;;20.67;67.70
2339;BME280;1180;51.438;6.978;2023-09-19T10:03:41;99820.81;;;20.58;67.84
2339;BME280;1180;51.438;6.978;2023-09-19T10:06:14;99823.75;;;20.55;68.19
2339;BME280;1180;51.438;6.978;2023-09-19T10:09:05;99825.19;;;20.58;67.87
2339;BME280;1180;51.438;6.978;2023-09-19T10:11:31;99833.31;;;20.63;66.95
2339;BME280;1180;51.438;6.978;2023-09-19T10:14:00;99821.59;;;20.59;67.33
2339;BME280;1180;51.438;6.978;2023-09-19T10:16:32;99822.56;;;20.66;66.70
2339;BME280;1180;51.438;6.978;2023-09-19T10:19:02;99817.72;;;20.55;65.94
2339;BME280;1180;51.438;6.978;2023-09-19T10:21:28;99811.38;;;20.57;67.33
2339;BME280;1180;51.438;6.978;2023-09-19T10:24:00;99814.63;;;20.59;67.35
2339;BME280;1180;51.438;6.978;2023-09-19T10:26:28;99802.53;;;20.67;65.93
2339;BME280;1180;51.438;6.978;2023-09-19T10:28:57;99803.47;;;20.82;66.01
2339;BME280;1180;51.438;6.978;2023-09-19T10:31:26;99804.75;;;20.95;66.24
2339;BME280;1180;51.438;6.978;2023-09-19T10:33:53;99803.75;;;20.96;66.21
2339;BME280;1180;51.438;6.978;2023-09-19T10:36:24;99805.72;;;20.94;65.72
2339;BME280;1180;51.438;6.978;2023-09-19T10:38:52;99802.44;;;21.00;64.13
2339;BME280;1180;51.438;6.978;2023-09-19T10:41:22;99803.13;;;20.94;64.65
2339;BME280;1180;51.438;6.978;2023-09-19T10:43:48;99793.97;;;20.98;64.14
2339;BME280;1180;51.438;6.978;2023-09-19T10:46:14;99809.41;;;21.08;64.47
2339;BME280;1180;51.438;6.978;2023-09-19T10:48:40;99800.78;;;21.30;63.28
2339;BME280;1180;51.438;6.978;2023-09-19T10:51:16;99810.22;;;21.40;63.62
2339;BME280;1180;51.438;6.978;2023-09-19T10:53:52;99791.16;;;21.31;61.55
2339;BME280;1180;51.438;6.978;2023-09-19T10:56:34;99796.50;;;21.38;61.29
2339;BME280;1180;51.438;6.978;2023-09-19T10:59:09;99781.50;;;21.40;62.75
2339;BME280;1180;51.438;6.978;2023-09-19T11:01:52;99786.09;;;21.29;61.59
2339;BME280;1180;51.438;6.978;2023-09-19T11:04:31;99797.31;;;21.38;61.63
2339;BME280;1180;51.438;6.978;2023-09-19T11:07:09;99793.66;;;21.47;61.76
2339;BME280;1180;51.438;6.978;2023-09-19T11:09:52;99788.03;;;21.35;61.30
2339;BME280;1180;51.438;6.978;2023-09-19T11:15:00;99786.94;;;21.30;62.36
2339;BME280;1180;51.438;6.978;2023-09-19T11:17:31;99794.06;;;21.36;61.40
2339;BME280;1180;51.438;6.978;2023-09-19T11:30:38;99802.88;;;21.35;61.56
2339;BME280;1180;51.438;6.978;2023-09-19T11:33:24;99809.59;;;21.29;61.98
2339;BME280;1180;51.438;6.978;2023-09-19T11:43:51;99795.00;;;21.43;59.50
2339;BME280;1180;51.438;6.978;2023-09-19T11:46:17;99788.91;;;21.51;60.23
2339;BME280;1180;51.438;6.978;2023-09-19T11:48:48;99791.06;;;21.71;60.08
2339;BME280;1180;51.438;6.978;2023-09-19T11:51:22;99786.06;;;21.84;61.01
2339;BME280;1180;51.438;6.978;2023-09-19T11:53:49;99790.38;;;21.77;58.92
2339;BME280;1180;51.438;6.978;2023-09-19T11:56:17;99792.91;;;21.85;58.50
2339;BME280;1180;51.438;6.978;2023-09-19T11:58:44;99793.28;;;21.82;58.83
2339;BME280;1180;51.438;6.978;2023-09-19T12:01:13;99795.94;;;21.97;58.73
2339;BME280;1180;51.438;6.978;2023-09-19T12:03:47;99782.66;;;21.99;58.56
2339;BME280;1180;51.438;6.978;2023-09-19T12:06:15;99786.75;;;22.16;58.67
2339;BME280;1180;51.438;6.978;2023-09-19T12:08:42;99774.13;;;22.20;59.27
2339;BME280;1180;51.438;6.978;2023-09-19T12:11:12;99767.13;;;22.35;58.22
2339;BME280;1180;51.438;6.978;2023-09-19T12:13:45;99764.78;;;22.26;56.62
2339;BME280;1180;51.438;6.978;2023-09-19T12:16:15;99762.88;;;22.19;56.36
2339;BME280;1180;51.438;6.978;2023-09-19T12:18:42;99758.53;;;22.12;55.45
2339;BME280;1180;51.438;6.978;2023-09-19T12:21:24;99763.34;;;22.08;56.21
2339;BME280;1180;51.438;6.978;2023-09-19T12:24:06;99760.78;;;22.15;55.60
2339;BME280;1180;51.438;6.978;2023-09-19T12:26:47;99767.28;;;22.19;55.75
2339;BME280;1180;51.438;6.978;2023-09-19T12:29:19;99754.78;;;22.29;56.17
2339;BME280;1180;51.438;6.978;2023-09-19T12:31:49;99747.56;;;22.31;56.57
2339;BME280;1180;51.438;6.978;2023-09-19T12:34:21;99753.25;;;22.50;55.53
2339;BME280;1180;51.438;6.978;2023-09-19T12:36:47;99750.22;;;22.46;54.73
2339;BME280;1180;51.438;6.978;2023-09-19T12:39:23;99748.81;;;22.35;54.65
2339;BME280;1180;51.438;6.978;2023-09-19T12:41:51;99738.09;;;22.45;54.29
2339;BME280;1180;51.438;6.978;2023-09-19T12:44:17;99736.03;;;22.41;54.67
2339;BME280;1180;51.438;6.978;2023-09-19T12:46:43;99735.41;;;22.39;54.03
2339;BME280;1180;51.438;6.978;2023-09-19T12:49:17;99733.41;;;22.41;53.73
2339;BME280;1180;51.438;6.978;2023-09-19T12:51:44;99733.50;;;22.62;53.47
2339;BME280;1180;51.438;6.978;2023-09-19T12:54:10;99726.47;;;22.63;53.48
2339;BME280;1180;51.438;6.978;2023-09-19T12:56:43;99730.63;;;22.72;53.58
2339;BME280;1180;51.438;6.978;2023-09-19T12:59:15;99734.97;;;22.87;54.04
2339;BME280;1180;51.438;6.978;2023-09-19T13:01:42;99729.75;;;22.87;53.81
2339;BME280;1180;51.438;6.978;2023-09-19T13:04:19;99733.81;;;22.89;52.40
2339;BME280;1180;51.438;6.978;2023-09-19T13:06:49;99730.91;;;22.84;51.98
2339;BME280;1180;51.438;6.978;2023-09-19T13:09:16;99735.06;;;22.93;52.30
2339;BME280;1180;51.438;6.978;2023-09-19T13:11:43;99716.13;;;23.13;54.33
2339;BME280;1180;51.438;6.978;2023-09-19T13:14:22;99719.78;;;23.34;54.49
2339;BME280;1180;51.438;6.978;2023-09-19T13:17:02;99733.16;;;23.46;55.49
2339;BME280;1180;51.438;6.978;2023-09-19T13:19:46;99740.09;;;23.54;52.74
2339;BME280;1180;51.438;6.978;2023-09-19T13:22:37;99731.88;;;23.63;52.96
2339;BME280;1180;51.438;6.978;2023-09-19T13:25:09;99752.81;;;23.57;52.73
2339;BME280;1180;51.438;6.978;2023-09-19T13:27:44;99743.34;;;23.56;51.81
2339;BME280;1180;51.438;6.978;2023-09-19T13:30:11;99749.84;;;23.66;51.74
2339;BME280;1180;51.438;6.978;2023-09-19T13:32:37;99736.56;;;23.68;53.43
2339;BME280;1180;51.438;6.978;2023-09-19T13:35:05;99729.09;;;23.65;53.23
2339;BME280;1180;51.438;6.978;2023-09-19T13:37:30;99734.31;;;23.65;53.46
2339;BME280;1180;51.438;6.978;2023-09-19T13:39:56;99741.88;;;23.82;51.78
2339;BME280;1180;51.438;6.978;2023-09-19T13:42:24;99729.28;;;23.92;52.35
2339;BME280;1180;51.438;6.978;2023-09-19T13:44:50;99729.94;;;24.01;52.19
2339;BME280;1180;51.438;6.978;2023-09-19T13:47:16;99725.53;;;24.01;52.24
2339;BME280;1180;51.438;6.978;2023-09-19T13:49:42;99737.47;;;24.04;52.69
2339;BME280;1180;51.438;6.978;2023-09-19T13:52:08;99732.56;;;24.01;52.24
2339;BME280;1180;51.438;6.978;2023-09-19T13:54:34;99735.53;;;23.98;52.60
2339;BME280;1180;51.438;6.978;2023-09-19T13:57:00;99735.31;;;23.92;52.31
2339;BME280;1180;51.438;6.978;2023-09-19T13:59:26;99731.22;;;23.83;52.19
2339;BME280;1180;51.438;6.978;2023-09-19T14:01:52;99744.81;;;23.65;51.86
2339;BME280;1180;51.438;6.978;2023-09-19T14:04:19;99737.41;;;23.47;52.34
2339;BME280;1180;51.438;6.978;2023-09-19T14:06:46;99746.28;;;23.52;53.45